Time;durP1;ratioP1;P1;durP2;ratioP2;P2;SDS_P1;SDS_P2;PMS_P1;PMS_P2;Temp;Humidity;BMP_temperature;BMP_pressure;BME280_temperature;BME280_humidity;BME280_pressure;Samples;Min_cycle;Max_cycle;Signal;HPM_P1;HPM_P2
2022/01/18 00:00:46;;;;;;;8.40;6.30;;;4.70;65.80;;;;;;5033748;28;46889;-83
2022/01/18 00:03:12;;;;;;;10.60;5.60;;;4.80;65.90;;;;;;5048528;28;47091;-83
2022/01/18 00:05:38;;;;;;;9.37;5.87;;;4.70;65.90;;;;;;5050754;28;46387;-83
2022/01/18 00:08:04;;;;;;;10.80;5.53;;;4.70;66.00;;;;;;5047396;28;46592;-83
2022/01/18 00:10:32;;;;;;;9.97;6.27;;;4.80;66.10;;;;;;5053831;28;46583;-84
2022/01/18 00:15:54;;;;;;;12.65;5.28;;;4.80;66.20;;;;;;5045206;28;46328;-83
2022/01/18 00:18:20;;;;;;;13.40;6.32;;;4.70;66.20;;;;;;5039514;28;45782;-82
2022/01/18 00:20:59;;;;;;;7.97;5.60;;;4.70;66.10;;;;;;5052080;28;46367;-84
2022/01/18 00:23:26;;;;;;;8.07;5.20;;;4.70;66.30;;;;;;5048661;28;47329;-83
2022/01/18 00:25:55;;;;;;;10.30;5.60;;;4.60;66.40;;;;;;5040147;28;46435;-83
2022/01/18 00:28:22;;;;;;;11.00;5.93;;;4.60;66.60;;;;;;5048644;28;46454;-83
2022/01/18 00:36:26;;;;;;;8.60;5.40;;;4.70;66.60;;;;;;5048179;28;46225;-82
2022/01/18 00:38:51;;;;;;;8.67;5.77;;;4.70;66.40;;;;;;5056619;28;46421;-82
2022/01/18 00:41:20;;;;;;;11.80;5.57;;;4.60;66.80;;;;;;5060412;28;46271;-84
2022/01/18 00:43:46;;;;;;;11.50;5.53;;;4.50;67.60;;;;;;5057093;28;46974;-83
2022/01/18 00:46:13;;;;;;;8.60;5.50;;;4.50;67.60;;;;;;5038717;28;46220;-83
2022/01/18 00:48:40;;;;;;;8.80;5.80;;;4.50;67.80;;;;;;5048086;28;46444;-83
2022/01/18 00:51:10;;;;;;;9.00;5.60;;;4.50;67.70;;;;;;5049734;28;46497;-84
2022/01/18 00:53:37;;;;;;;7.00;5.33;;;4.40;67.80;;;;;;5034353;28;48634;-84
2022/01/18 00:58:36;;;;;;;9.23;5.73;;;4.50;67.60;;;;;;5042302;28;46419;-81
2022/01/18 01:01:02;;;;;;;9.00;5.10;;;4.60;67.60;;;;;;5052535;28;45918;-83
2022/01/18 01:03:28;;;;;;;8.97;5.33;;;4.40;68.30;;;;;;5033644;28;48575;-83
2022/01/18 01:05:53;;;;;;;8.37;5.70;;;4.40;68.80;;;;;;5051968;28;46439;-83
2022/01/18 01:08:19;;;;;;;16.33;5.37;;;4.30;69.10;;;;;;5049463;28;46836;-83
2022/01/18 01:10:45;;;;;;;9.20;5.73;;;4.40;68.90;;;;;;5031983;28;46463;-83
2022/01/18 01:13:12;;;;;;;9.17;6.17;;;4.50;68.70;;;;;;5044873;28;46580;-83
2022/01/18 01:16:00;;;;;;;9.80;5.87;;;4.50;68.40;;;;;;5046130;28;46216;-82
2022/01/18 01:18:41;;;;;;;11.18;5.65;;;4.60;68.30;;;;;;5045441;28;46298;-82
2022/01/18 01:35:12;;;;;;;11.00;6.50;;;4.70;67.60;;;;;;5038980;28;46586;-83
2022/01/18 01:43:19;;;;;;;8.63;6.00;;;4.60;68.10;;;;;;5044772;28;45891;-82
2022/01/18 01:45:44;;;;;;;10.40;6.30;;;4.60;68.10;;;;;;5048579;28;46330;-82
2022/01/18 01:48:10;;;;;;;9.90;6.70;;;4.60;68.40;;;;;;5046315;28;46549;-83
2022/01/18 01:50:46;;;;;;;9.60;6.17;;;4.60;68.30;;;;;;5045843;28;46643;-81
2022/01/18 01:53:12;;;;;;;10.13;6.50;;;4.60;68.40;;;;;;5047568;28;46421;-84
2022/01/18 01:55:38;;;;;;;10.20;5.90;;;4.60;68.50;;;;;;5036179;28;46430;-82
2022/01/18 01:58:04;;;;;;;9.57;7.10;;;4.60;68.40;;;;;;5036498;28;46340;-84
2022/01/18 02:00:30;;;;;;;11.07;6.40;;;4.70;68.20;;;;;;5043858;28;46517;-82
2022/01/18 02:02:55;;;;;;;11.20;6.63;;;4.80;68.00;;;;;;5043875;28;46421;-83
2022/01/18 02:05:22;;;;;;;11.63;7.17;;;4.80;68.10;;;;;;5033009;28;47901;-82
2022/01/18 02:07:51;;;;;;;11.70;7.53;;;4.80;68.10;;;;;;5045364;28;46496;-83
2022/01/18 02:10:17;;;;;;;10.80;7.10;;;4.80;68.10;;;;;;5048257;28;46483;-81
2022/01/18 02:12:43;;;;;;;11.67;6.87;;;4.80;68.20;;;;;;5033629;28;46478;-83
2022/01/18 02:15:14;;;;;;;10.37;6.50;;;4.80;68.10;;;;;;5033430;28;48546;-84
2022/01/18 02:23:20;;;;;;;9.90;6.43;;;4.90;68.10;;;;;;5043285;28;46434;-83
2022/01/18 02:25:46;;;;;;;9.60;6.53;;;4.90;68.20;;;;;;5044888;28;48135;-84
2022/01/18 02:28:13;;;;;;;9.97;6.60;;;4.90;68.20;;;;;;5044628;28;46371;-83
2022/01/18 02:30:39;;;;;;;10.63;7.55;;;4.80;68.30;;;;;;5048592;28;46461;-86
2022/01/18 02:33:05;;;;;;;9.63;6.80;;;4.80;68.40;;;;;;5053364;28;46322;-84
2022/01/18 02:35:35;;;;;;;10.83;7.10;;;4.80;68.40;;;;;;5042429;28;48467;-86
2022/01/18 02:38:02;;;;;;;12.60;7.43;;;4.80;68.60;;;;;;5043152;28;46439;-84
2022/01/18 02:40:29;;;;;;;11.93;7.53;;;4.80;68.60;;;;;;5043637;28;46496;-84
2022/01/18 02:42:59;;;;;;;11.90;7.43;;;4.70;68.70;;;;;;5048174;28;46421;-84
2022/01/18 02:45:25;;;;;;;10.60;7.03;;;4.80;68.80;;;;;;5048460;28;47035;-85
2022/01/18 02:47:51;;;;;;;12.83;7.40;;;4.70;68.80;;;;;;5044555;28;46289;-84
2022/01/18 02:50:18;;;;;;;12.90;7.60;;;4.70;68.80;;;;;;5033395;28;46665;-82
2022/01/18 02:52:43;;;;;;;11.70;7.23;;;4.80;68.80;;;;;;5046325;28;46282;-84
2022/01/18 02:55:09;;;;;;;12.83;7.97;;;4.70;68.90;;;;;;5045578;28;46359;-84
2022/01/18 02:57:43;;;;;;;12.43;7.57;;;4.70;68.90;;;;;;5045331;28;46502;-84
2022/01/18 03:00:27;;;;;;;11.50;7.85;;;4.80;69.10;;;;;;5029483;28;46619;-84
2022/01/18 03:03:13;;;;;;;15.80;7.60;;;4.70;69.40;;;;;;5026898;28;46610;-84
2022/01/18 03:05:41;;;;;;;11.43;7.80;;;4.60;69.40;;;;;;5028173;28;48764;-83
2022/01/18 03:08:08;;;;;;;13.63;7.80;;;4.60;69.60;;;;;;5028955;28;46472;-82
2022/01/18 03:10:34;;;;;;;13.60;8.10;;;4.60;69.60;;;;;;5046725;28;46814;-83
2022/01/18 03:13:00;;;;;;;9.50;6.30;;;4.60;70.20;;;;;;5047481;28;46676;-83
2022/01/18 03:15:26;;;;;;;12.40;7.93;;;4.50;70.20;;;;;;5043558;28;46462;-83
2022/01/18 03:17:51;;;;;;;10.60;7.00;;;4.40;71.00;;;;;;5043598;28;46436;-82
2022/01/18 03:20:19;;;;;;;10.83;7.50;;;4.20;72.10;;;;;;5042273;28;46378;-85
2022/01/18 03:22:46;;;;;;;11.73;7.83;;;4.10;72.90;;;;;;5043009;28;46418;-84
2022/01/18 03:25:27;;;;;;;12.07;8.10;;;4.10;72.90;;;;;;5043490;28;46498;-84
2022/01/18 03:28:05;;;;;;;14.65;8.25;;;4.10;72.90;;;;;;5042752;28;45901;-84
2022/01/18 03:30:34;;;;;;;13.57;8.70;;;4.10;74.00;;;;;;5048162;28;46720;-85
2022/01/18 03:33:01;;;;;;;14.27;8.17;;;4.20;72.90;;;;;;5039420;28;46414;-83
2022/01/18 03:35:26;;;;;;;12.73;7.97;;;4.20;72.90;;;;;;5047056;28;47309;-85
2022/01/18 03:37:52;;;;;;;14.20;8.83;;;4.20;72.90;;;;;;5051803;28;45773;-84
2022/01/18 03:40:18;;;;;;;13.30;8.33;;;4.20;72.90;;;;;;5058803;28;45806;-83
2022/01/18 03:42:47;;;;;;;13.87;7.90;;;4.30;73.00;;;;;;5047627;28;46646;-85
2022/01/18 03:45:17;;;;;;;13.30;8.57;;;4.20;73.00;;;;;;5046446;28;47076;-84
2022/01/18 03:47:45;;;;;;;14.10;7.90;;;4.20;72.90;;;;;;5035490;28;46658;-84
2022/01/18 03:50:12;;;;;;;13.65;8.68;;;4.20;73.00;;;;;;5045385;28;46734;-84
2022/01/18 03:52:39;;;;;;;13.73;8.13;;;4.10;72.90;;;;;;5045506;28;46425;-84
2022/01/18 03:55:07;;;;;;;12.45;8.48;;;4.00;73.90;;;;;;5046446;28;46460;-83
2022/01/18 03:57:33;;;;;;;11.40;7.53;;;4.00;74.40;;;;;;5034893;28;46560;-81
2022/01/18 03:59:59;;;;;;;13.63;8.53;;;4.00;74.10;;;;;;5047495;28;46877;-83
2022/01/18 04:02:25;;;;;;;14.83;8.70;;;4.00;73.80;;;;;;5049240;28;46406;-84
2022/01/18 04:04:50;;;;;;;14.07;9.00;;;4.10;73.40;;;;;;5038480;28;48550;-82
2022/01/18 04:07:16;;;;;;;12.07;7.77;;;4.10;73.30;;;;;;5047024;28;46613;-83
2022/01/18 04:09:41;;;;;;;12.20;8.57;;;4.10;73.00;;;;;;5046079;28;46315;-80
2022/01/18 04:12:08;;;;;;;13.00;9.10;;;4.20;72.90;;;;;;5045499;28;46460;-82
2022/01/18 04:14:33;;;;;;;14.13;9.07;;;4.30;73.00;;;;;;5048707;28;47183;-83
2022/01/18 04:27:51;;;;;;;18.23;8.90;;;4.60;72.00;;;;;;5048505;28;46557;-82
2022/01/18 04:30:17;;;;;;;13.18;9.20;;;4.70;71.90;;;;;;5036549;28;46799;-80
2022/01/18 04:32:43;;;;;;;13.50;8.63;;;4.70;71.70;;;;;;5048183;28;46448;-81
2022/01/18 04:35:09;;;;;;;13.63;9.03;;;4.70;71.70;;;;;;5043801;28;48534;-78
2022/01/18 04:37:34;;;;;;;15.50;8.47;;;4.70;71.90;;;;;;5035120;28;46288;-81
2022/01/18 04:40:07;;;;;;;12.43;8.37;;;4.60;71.90;;;;;;5044726;28;46424;-81
2022/01/18 04:42:45;;;;;;;14.83;8.20;;;4.50;72.20;;;;;;5047912;28;46370;-80
2022/01/18 04:50:39;;;;;;;16.30;9.15;;;4.20;72.90;;;;;;5044023;28;46551;-82
2022/01/18 04:53:05;;;;;;;15.97;9.53;;;4.10;72.90;;;;;;5045446;28;46435;-81
2022/01/18 04:55:32;;;;;;;16.47;8.23;;;3.90;72.70;;;;;;5043753;28;46539;-80
2022/01/18 04:57:58;;;;;;;12.02;8.48;;;3.90;72.70;;;;;;5045784;28;46446;-80
2022/01/18 05:00:25;;;;;;;13.50;8.60;;;3.70;73.00;;;;;;5043752;28;46918;-78
2022/01/18 05:02:51;;;;;;;15.67;8.70;;;3.70;73.20;;;;;;5046918;28;46374;-80
2022/01/18 05:05:27;;;;;;;16.10;9.40;;;3.60;73.20;;;;;;5037353;28;49378;-83
2022/01/18 05:07:54;;;;;;;15.07;8.05;;;3.70;72.80;;;;;;5044959;28;46353;-83
2022/01/18 05:10:22;;;;;;;18.83;9.70;;;3.80;72.60;;;;;;5029638;28;46399;-83
2022/01/18 05:12:53;;;;;;;15.53;8.87;;;3.90;72.70;;;;;;5041219;28;46597;-82
2022/01/18 05:23:18;;;;;;;17.20;9.70;;;4.20;71.80;;;;;;5044663;28;46355;-81
2022/01/18 05:25:46;;;;;;;15.27;9.27;;;4.20;71.70;;;;;;5040154;28;54362;-82
2022/01/18 05:28:12;;;;;;;17.40;10.10;;;4.20;71.80;;;;;;5050718;28;46288;-82
2022/01/18 05:30:38;;;;;;;14.48;9.10;;;4.30;71.80;;;;;;5052617;28;46416;-81
2022/01/18 05:33:04;;;;;;;14.63;9.33;;;4.30;71.70;;;;;;5037021;28;46774;-81
2022/01/18 05:35:29;;;;;;;19.93;10.03;;;4.30;71.60;;;;;;5056153;28;47312;-83
2022/01/18 05:37:57;;;;;;;15.43;9.57;;;4.30;71.50;;;;;;5040720;28;47137;-81
2022/01/18 05:40:23;;;;;;;17.55;10.73;;;4.30;71.50;;;;;;5051614;28;46407;-80
2022/01/18 05:42:49;;;;;;;17.10;9.23;;;4.40;71.40;;;;;;5046677;28;46359;-82
2022/01/18 05:45:15;;;;;;;18.93;10.97;;;4.40;71.20;;;;;;5047576;28;47449;-81
2022/01/18 05:47:41;;;;;;;18.73;12.30;;;4.50;71.30;;;;;;5021012;28;47051;-81
2022/01/18 05:50:09;;;;;;;17.48;10.63;;;4.40;71.40;;;;;;5046310;28;46458;-81
2022/01/18 05:52:35;;;;;;;19.40;10.20;;;4.50;72.20;;;;;;5036971;28;46909;-83
2022/01/18 05:55:01;;;;;;;20.75;11.52;;;4.50;72.20;;;;;;5044435;28;46458;-81
2022/01/18 05:57:26;;;;;;;17.53;10.80;;;4.50;71.90;;;;;;5048149;28;46347;-81
2022/01/18 05:59:54;;;;;;;19.87;11.47;;;4.50;72.30;;;;;;5036352;28;46253;-81
2022/01/18 06:02:41;;;;;;;23.57;10.47;;;4.60;72.30;;;;;;5048506;28;46386;-81
2022/01/18 06:07:56;;;;;;;18.67;9.95;;;4.50;72.00;;;;;;5043251;28;45846;-81
2022/01/18 06:10:24;;;;;;;18.40;10.00;;;4.50;72.00;;;;;;5042881;28;46424;-81
2022/01/18 06:12:50;;;;;;;20.87;11.40;;;4.60;71.70;;;;;;5041655;28;46206;-82
2022/01/18 06:15:16;;;;;;;22.67;12.20;;;4.50;71.60;;;;;;5042734;28;47379;-82
2022/01/18 06:17:41;;;;;;;17.58;10.68;;;4.60;71.60;;;;;;5027730;28;46794;-81
2022/01/18 06:20:08;;;;;;;20.33;11.50;;;4.50;71.40;;;;;;5027099;28;46447;-81
2022/01/18 06:22:34;;;;;;;18.60;10.13;;;4.50;71.50;;;;;;5043706;28;46497;-81
2022/01/18 06:24:59;;;;;;;18.60;10.70;;;4.50;71.40;;;;;;5036651;28;48137;-80
2022/01/18 06:27:25;;;;;;;20.67;9.90;;;4.50;71.50;;;;;;5036042;28;46551;-81
2022/01/18 06:29:52;;;;;;;16.63;9.93;;;4.60;71.40;;;;;;5035183;28;45860;-82
2022/01/18 06:32:17;;;;;;;19.20;9.63;;;4.60;71.40;;;;;;5050158;28;46545;-80
2022/01/18 06:34:43;;;;;;;18.90;10.73;;;4.60;71.30;;;;;;5052556;28;46244;-80
2022/01/18 06:37:09;;;;;;;15.93;10.07;;;4.60;71.30;;;;;;5045985;28;46329;-81
2022/01/18 06:39:35;;;;;;;17.60;9.60;;;4.60;71.10;;;;;;5048236;28;46341;-81
2022/01/18 06:42:00;;;;;;;14.93;9.60;;;4.60;71.30;;;;;;5042034;28;46272;-80
2022/01/18 06:44:29;;;;;;;16.20;9.97;;;4.70;71.60;;;;;;5042121;28;51058;-81
2022/01/18 06:46:55;;;;;;;22.88;10.70;;;4.70;71.40;;;;;;5041659;28;46470;-80
2022/01/18 06:49:20;;;;;;;16.67;10.40;;;4.70;71.40;;;;;;5027937;28;46316;-81
2022/01/18 06:51:46;;;;;;;18.27;10.13;;;4.70;71.30;;;;;;5025972;28;46383;-79
2022/01/18 06:54:15;;;;;;;17.83;10.23;;;4.70;71.30;;;;;;5046195;28;46512;-81
2022/01/18 06:56:47;;;;;;;16.90;10.50;;;4.70;71.30;;;;;;5043134;28;46428;-82
2022/01/18 06:59:13;;;;;;;18.38;11.05;;;4.80;71.30;;;;;;5043141;28;46224;-80
2022/01/18 07:01:39;;;;;;;18.63;10.53;;;4.70;71.60;;;;;;5045213;28;46428;-80
2022/01/18 07:04:05;;;;;;;16.07;9.90;;;4.60;72.10;;;;;;5030890;28;48490;-80
2022/01/18 07:06:31;;;;;;;16.90;10.33;;;4.70;71.90;;;;;;5042212;28;46567;-81
2022/01/18 07:08:57;;;;;;;24.70;11.85;;;4.80;71.60;;;;;;5041848;28;46347;-80
2022/01/18 07:11:23;;;;;;;19.37;11.67;;;5.00;71.20;;;;;;5052115;28;46559;-80
2022/01/18 07:13:48;;;;;;;19.13;10.70;;;5.10;71.30;;;;;;5039416;28;49024;-82
2022/01/18 07:16:16;;;;;;;18.07;10.50;;;5.20;71.30;;;;;;5055887;28;48748;-82
2022/01/18 07:18:43;;;;;;;22.02;10.15;;;5.30;71.30;;;;;;5054410;28;46286;-84
2022/01/18 07:21:09;;;;;;;38.33;17.33;;;5.40;71.40;;;;;;5043610;28;46610;-79
2022/01/18 07:23:35;;;;;;;17.80;11.50;;;5.40;71.40;;;;;;5043176;28;47160;-82
2022/01/18 07:26:01;;;;;;;19.63;10.40;;;5.10;72.10;;;;;;5045899;28;45759;-80
2022/01/18 07:28:27;;;;;;;24.93;13.13;;;5.00;72.20;;;;;;5035199;28;46381;-80
2022/01/18 07:30:52;;;;;;;39.60;18.13;;;5.00;72.10;;;;;;5040702;28;46800;-81
2022/01/18 07:33:19;;;;;;;40.53;19.33;;;5.10;72.00;;;;;;5046370;28;46730;-80
2022/01/18 07:35:45;;;;;;;22.30;12.25;;;5.20;71.70;;;;;;5036817;28;46434;-82
2022/01/18 07:38:15;;;;;;;22.50;12.43;;;5.30;71.90;;;;;;5053254;28;46725;-82
2022/01/18 07:40:41;;;;;;;19.77;10.30;;;5.30;71.90;;;;;;5029281;28;46385;-81
2022/01/18 07:43:08;;;;;;;19.70;11.77;;;5.30;72.20;;;;;;5047497;28;46685;-81
2022/01/18 07:45:36;;;;;;;23.77;13.07;;;5.30;72.30;;;;;;5046082;28;46402;-82
2022/01/18 07:48:04;;;;;;;30.45;17.25;;;5.40;72.10;;;;;;5042555;28;46334;-82
2022/01/18 07:50:29;;;;;;;52.93;23.53;;;5.40;72.40;;;;;;5043207;28;45908;-82
2022/01/18 07:52:56;;;;;;;33.00;16.37;;;5.30;73.40;;;;;;5043066;28;47693;-81
2022/01/18 07:55:22;;;;;;;20.33;11.37;;;5.30;73.20;;;;;;5044032;28;46445;-82
2022/01/18 07:57:47;;;;;;;23.43;13.07;;;5.30;73.00;;;;;;5031020;28;46411;-81
2022/01/18 08:00:15;;;;;;;22.20;12.20;;;5.30;72.80;;;;;;5030235;28;46509;-81
2022/01/18 08:02:42;;;;;;;19.47;11.13;;;5.30;72.80;;;;;;5043904;28;46676;-81
2022/01/18 08:05:09;;;;;;;27.17;14.60;;;5.40;72.60;;;;;;5035187;28;46370;-80
2022/01/18 08:07:37;;;;;;;20.80;12.87;;;5.40;72.30;;;;;;5046023;28;45755;-81
2022/01/18 08:10:06;;;;;;;26.80;12.60;;;5.40;72.00;;;;;;5042545;28;45898;-82
2022/01/18 08:12:31;;;;;;;20.97;12.50;;;5.40;71.70;;;;;;5029572;28;47166;-81
2022/01/18 08:15:02;;;;;;;26.40;11.23;;;5.50;71.60;;;;;;5028957;28;46379;-81
2022/01/18 08:17:29;;;;;;;19.23;12.27;;;5.40;71.40;;;;;;5047728;28;46446;-80
2022/01/18 08:19:55;;;;;;;24.33;11.80;;;5.40;72.20;;;;;;5037480;28;46433;-82
2022/01/18 08:22:20;;;;;;;21.10;12.30;;;5.40;71.40;;;;;;5027417;28;47906;-80
2022/01/18 08:24:46;;;;;;;21.83;11.10;;;5.40;71.30;;;;;;5044542;28;46350;-80
2022/01/18 08:27:11;;;;;;;20.97;13.27;;;5.50;71.10;;;;;;5044325;28;46286;-82
2022/01/18 08:29:37;;;;;;;19.23;12.57;;;5.50;71.10;;;;;;5038162;28;46464;-78
2022/01/18 08:32:04;;;;;;;23.70;14.73;;;5.50;71.10;;;;;;5035876;28;48382;-82
2022/01/18 08:34:33;;;;;;;21.20;11.97;;;5.50;71.00;;;;;;5035819;28;47979;-82
2022/01/18 08:36:59;;;;;;;19.25;13.30;;;5.60;70.90;;;;;;5050758;28;45911;-82
2022/01/18 08:39:25;;;;;;;18.00;11.40;;;5.60;70.70;;;;;;5045165;28;46459;-82
2022/01/18 08:41:50;;;;;;;16.77;10.60;;;5.60;71.10;;;;;;5046932;28;46475;-80
2022/01/18 08:44:16;;;;;;;18.33;11.23;;;5.60;71.00;;;;;;5038528;28;46438;-80
2022/01/18 08:46:42;;;;;;;17.63;11.40;;;5.70;70.80;;;;;;5051483;28;46358;-81
2022/01/18 08:49:08;;;;;;;22.60;12.87;;;5.80;70.80;;;;;;5046666;28;46664;-82
2022/01/18 08:51:34;;;;;;;20.87;11.43;;;5.90;70.70;;;;;;5043272;28;46603;-79
2022/01/18 08:54:01;;;;;;;22.20;12.13;;;6.00;70.70;;;;;;5033528;28;46331;-82
2022/01/18 08:56:27;;;;;;;19.90;10.43;;;6.10;70.70;;;;;;5044439;28;46209;-80
2022/01/18 08:58:55;;;;;;;23.00;11.97;;;6.00;70.80;;;;;;5045084;28;46428;-82
2022/01/18 09:01:20;;;;;;;22.70;14.73;;;6.10;70.80;;;;;;5043849;28;47345;-81
2022/01/18 09:03:46;;;;;;;23.33;14.33;;;6.10;71.00;;;;;;5047802;28;45848;-82
2022/01/18 09:06:13;;;;;;;26.43;13.73;;;6.20;70.60;;;;;;5052455;28;46172;-83
2022/01/18 09:08:40;;;;;;;22.97;13.60;;;6.20;70.70;;;;;;5049002;28;46382;-82
2022/01/18 09:11:07;;;;;;;22.20;12.33;;;6.30;70.30;;;;;;5032492;28;48875;-81
2022/01/18 09:13:36;;;;;;;23.75;14.85;;;6.40;70.00;;;;;;5045093;28;46696;-80
2022/01/18 09:16:02;;;;;;;19.17;12.30;;;6.40;69.50;;;;;;5045109;28;46416;-80
2022/01/18 09:18:28;;;;;;;20.53;12.43;;;6.50;69.70;;;;;;5028962;28;46647;-81
2022/01/18 09:20:53;;;;;;;17.00;10.60;;;6.60;69.60;;;;;;5055236;28;49316;-82
2022/01/18 09:23:19;;;;;;;21.80;12.20;;;6.50;69.10;;;;;;5042305;28;45787;-80
2022/01/18 09:25:44;;;;;;;15.83;10.77;;;6.50;68.90;;;;;;5033640;28;46273;-81
2022/01/18 09:28:10;;;;;;;20.80;12.70;;;6.60;68.70;;;;;;5042696;28;45867;-80
2022/01/18 09:30:37;;;;;;;20.33;12.70;;;6.70;68.80;;;;;;5040644;28;48875;-81
2022/01/18 09:33:06;;;;;;;16.90;11.70;;;6.70;68.60;;;;;;5043119;28;46468;-83
2022/01/18 09:35:34;;;;;;;19.73;11.30;;;6.90;68.20;;;;;;5051528;28;46273;-80
2022/01/18 09:37:59;;;;;;;15.87;9.67;;;6.90;67.80;;;;;;5054521;28;46303;-79
2022/01/18 09:40:33;;;;;;;18.43;9.80;;;6.90;68.00;;;;;;5030800;28;48179;-80
2022/01/18 09:43:01;;;;;;;17.03;10.80;;;6.80;67.80;;;;;;5041371;28;46387;-81
2022/01/18 09:45:31;;;;;;;14.57;8.73;;;6.90;68.00;;;;;;5050683;28;46394;-80
2022/01/18 09:47:57;;;;;;;17.33;9.57;;;6.90;67.80;;;;;;5045583;28;46417;-82
2022/01/18 09:50:29;;;;;;;21.23;9.60;;;6.90;67.70;;;;;;5038079;28;49378;-79
2022/01/18 09:52:56;;;;;;;20.53;10.80;;;7.00;67.40;;;;;;5044039;28;46330;-80
2022/01/18 09:55:25;;;;;;;14.70;9.93;;;7.00;67.50;;;;;;5040787;28;46484;-82
2022/01/18 09:57:51;;;;;;;19.13;9.70;;;6.90;67.60;;;;;;5031972;28;46307;-84
2022/01/18 10:00:23;;;;;;;17.80;10.30;;;7.10;67.70;;;;;;5040466;28;48675;-84
2022/01/18 10:02:49;;;;;;;17.37;10.10;;;7.10;67.40;;;;;;5051539;28;46280;-81
2022/01/18 10:05:33;;;;;;;18.67;10.90;;;7.30;67.20;;;;;;5032422;28;46292;-81
2022/01/18 10:08:12;;;;;;;21.87;10.20;;;7.40;66.90;;;;;;5042063;28;46641;-82
2022/01/18 10:10:44;;;;;;;17.77;10.43;;;7.50;66.80;;;;;;5030588;28;48321;-81
2022/01/18 10:13:25;;;;;;;20.50;9.70;;;7.50;66.90;;;;;;5033804;28;46773;-81
2022/01/18 10:15:59;;;;;;;18.97;9.73;;;7.50;66.70;;;;;;5041049;28;46294;-80
2022/01/18 10:18:35;;;;;;;17.63;9.10;;;7.60;66.30;;;;;;5028810;28;46965;-80
2022/01/18 10:21:00;;;;;;;16.90;8.67;;;7.70;65.60;;;;;;5049370;28;46647;-81
2022/01/18 10:23:26;;;;;;;16.10;9.53;;;7.70;65.50;;;;;;5038056;28;46379;-83
2022/01/18 10:25:55;;;;;;;14.83;8.67;;;7.70;65.40;;;;;;5045396;28;46448;-82
2022/01/18 10:28:34;;;;;;;13.73;8.10;;;7.60;65.60;;;;;;5037550;28;46370;-84
2022/01/18 10:31:05;;;;;;;36.13;18.07;;;7.40;65.90;;;;;;5051791;28;46629;-83
2022/01/18 10:33:36;;;;;;;47.47;20.23;;;7.40;66.00;;;;;;5047071;28;46364;-81
2022/01/18 10:36:14;;;;;;;29.80;14.23;;;7.30;66.00;;;;;;5046752;28;46472;-82
2022/01/18 10:38:49;;;;;;;17.60;10.20;;;7.30;65.90;;;;;;5048392;28;45895;-82
2022/01/18 10:41:28;;;;;;;17.93;10.50;;;7.40;66.00;;;;;;5049385;28;46612;-80
2022/01/18 10:44:04;;;;;;;17.10;9.53;;;7.50;65.80;;;;;;5053789;28;46348;-84
2022/01/18 10:46:41;;;;;;;17.33;9.80;;;7.50;65.30;;;;;;5050545;28;46535;-80
2022/01/18 10:49:08;;;;;;;14.35;8.52;;;7.50;64.80;;;;;;5049624;28;46398;-81
2022/01/18 10:51:40;;;;;;;12.83;7.77;;;7.50;64.10;;;;;;5047944;28;46515;-82
2022/01/18 10:54:09;;;;;;;13.70;7.97;;;7.50;64.10;;;;;;5042302;28;46372;-80
2022/01/18 10:56:45;;;;;;;12.57;7.00;;;7.50;64.20;;;;;;5043419;28;46363;-82
2022/01/18 10:59:21;;;;;;;11.53;7.07;;;7.70;64.10;;;;;;5041904;28;46406;-80
2022/01/18 11:02:18;;;;;;;11.20;6.63;;;7.90;63.60;;;;;;5042892;28;46681;-79
2022/01/18 11:04:51;;;;;;;15.00;6.97;;;8.20;62.30;;;;;;5042074;28;46473;-80
2022/01/18 11:07:20;;;;;;;12.13;5.50;;;8.50;62.20;;;;;;5041516;28;46134;-82
2022/01/18 11:09:46;;;;;;;9.60;6.30;;;8.60;61.50;;;;;;5040682;28;45946;-80
2022/01/18 11:12:12;;;;;;;10.53;5.53;;;8.70;61.00;;;;;;5046343;28;48641;-81
2022/01/18 11:14:43;;;;;;;10.63;5.90;;;8.50;60.30;;;;;;5017268;28;47148;-81
2022/01/18 11:17:24;;;;;;;8.60;5.40;;;8.30;59.40;;;;;;5011334;28;46528;-80
2022/01/18 11:19:55;;;;;;;11.63;5.50;;;8.00;61.10;;;;;;5041472;28;46373;-82
2022/01/18 11:22:24;;;;;;;10.03;4.60;;;7.60;61.30;;;;;;5044095;28;46440;-80
2022/01/18 11:24:58;;;;;;;10.50;5.13;;;7.60;61.50;;;;;;5043516;28;46783;-79
2022/01/18 11:27:24;;;;;;;8.80;4.50;;;7.60;61.30;;;;;;5037505;28;46407;-79
2022/01/18 11:29:52;;;;;;;9.73;4.63;;;7.60;61.30;;;;;;5034619;28;46431;-80
2022/01/18 11:32:18;;;;;;;9.00;5.20;;;7.70;61.00;;;;;;5042193;28;46507;-80
2022/01/18 11:34:56;;;;;;;4.87;2.83;;;7.70;60.70;;;;;;5045105;28;46606;-81
2022/01/18 11:37:47;;;;;;;15.33;5.10;;;7.60;60.60;;;;;;5042585;28;45817;-80
2022/01/18 11:40:15;;;;;;;6.57;3.20;;;7.70;60.30;;;;;;5050589;28;46545;-81
2022/01/18 11:42:51;;;;;;;7.93;3.40;;;7.70;58.80;;;;;;5054957;28;46502;-82
2022/01/18 11:45:29;;;;;;;7.03;3.60;;;7.50;58.30;;;;;;5038940;28;46713;-81
2022/01/18 11:48:03;;;;;;;10.17;3.03;;;7.40;58.80;;;;;;5031886;28;46599;-81
2022/01/18 11:50:42;;;;;;;7.27;3.70;;;7.10;59.20;;;;;;5051364;28;46319;-80
2022/01/18 11:53:26;;;;;;;8.37;3.73;;;7.00;59.20;;;;;;5046576;28;47113;-79
2022/01/18 11:56:02;;;;;;;5.73;3.30;;;7.10;59.20;;;;;;5027854;28;46318;-84
2022/01/18 11:58:28;;;;;;;6.77;3.90;;;7.20;59.00;;;;;;5046904;28;46376;-81
2022/01/18 12:01:00;;;;;;;6.17;3.63;;;7.10;59.00;;;;;;5029112;28;46556;-82
2022/01/18 12:03:28;;;;;;;12.30;4.30;;;7.20;59.00;;;;;;5051253;28;46386;-81
2022/01/18 12:05:55;;;;;;;8.90;3.50;;;7.10;59.40;;;;;;5031919;28;46418;-81
2022/01/18 12:08:38;;;;;;;8.00;3.40;;;7.10;59.30;;;;;;5034158;28;45816;-80
2022/01/18 12:11:33;;;;;;;4.60;2.80;;;7.20;59.00;;;;;;5048659;28;45996;-82
2022/01/18 12:14:00;;;;;;;6.43;3.30;;;7.10;59.00;;;;;;5037143;28;48089;-81
2022/01/18 12:16:30;;;;;;;6.00;3.00;;;7.10;58.90;;;;;;5048981;28;46520;-81
2022/01/18 12:19:04;;;;;;;19.23;4.03;;;6.90;58.60;;;;;;5047987;28;46373;-81
2022/01/18 12:21:32;;;;;;;6.90;3.83;;;6.80;58.80;;;;;;5047647;28;46276;-82
2022/01/18 12:24:22;;;;;;;9.97;4.30;;;6.70;58.60;;;;;;5045883;28;46862;-80
2022/01/18 12:27:00;;;;;;;6.50;3.70;;;6.70;58.60;;;;;;5047156;28;46451;-81
2022/01/18 12:32:19;;;;;;;8.17;4.77;;;6.70;58.50;;;;;;5044674;28;46467;-81
2022/01/18 12:34:48;;;;;;;13.60;7.97;;;6.90;58.40;;;;;;5043864;28;46754;-82
2022/01/18 12:37:17;;;;;;;7.57;4.33;;;6.80;58.40;;;;;;5047736;28;46526;-80
2022/01/18 12:39:55;;;;;;;8.47;4.50;;;6.80;58.40;;;;;;5044373;28;46383;-82
2022/01/18 12:45:16;;;;;;;9.80;4.70;;;6.70;58.40;;;;;;5040627;28;46139;-79
2022/01/18 12:47:48;;;;;;;10.40;4.67;;;6.60;58.80;;;;;;5048931;28;46485;-80
2022/01/18 12:50:17;;;;;;;9.57;5.00;;;6.60;58.30;;;;;;5042194;28;46652;-80
2022/01/18 12:52:54;;;;;;;9.27;4.60;;;6.60;58.20;;;;;;5030401;28;46549;-81
2022/01/18 12:55:27;;;;;;;19.40;8.27;;;6.70;57.80;;;;;;5042530;28;46469;-80
2022/01/18 12:58:01;;;;;;;19.40;6.77;;;6.60;57.60;;;;;;5044294;28;46393;-78
2022/01/18 13:00:26;;;;;;;12.37;6.20;;;6.50;58.30;;;;;;5043667;28;46725;-79
2022/01/18 13:02:56;;;;;;;30.07;12.10;;;6.50;58.00;;;;;;5046897;28;46551;-81
2022/01/18 13:05:21;;;;;;;13.20;6.33;;;6.60;57.90;;;;;;5030347;28;49879;-81
2022/01/18 13:07:51;;;;;;;12.43;5.97;;;6.60;58.00;;;;;;5044010;28;46429;-81
2022/01/18 13:10:37;;;;;;;15.03;5.70;;;6.40;58.30;;;;;;5048846;28;47688;-80
2022/01/18 13:13:04;;;;;;;12.30;4.50;;;6.30;58.60;;;;;;5047731;28;46429;-81
2022/01/18 13:16:04;;;;;;;11.57;4.40;;;6.20;58.60;;;;;;5051796;28;46720;-80
2022/01/18 13:26:42;;;;;;;8.60;4.77;;;6.20;58.30;;;;;;5045429;28;47013;-80
2022/01/18 13:29:27;;;;;;;10.07;4.83;;;6.20;58.00;;;;;;5033921;28;46392;-80
2022/01/18 13:32:23;;;;;;;9.53;3.73;;;6.20;57.80;;;;;;5043829;28;46256;-80
2022/01/18 13:34:55;;;;;;;11.40;5.30;;;6.00;58.20;;;;;;5048934;28;46402;-82
2022/01/18 13:37:27;;;;;;;11.00;5.40;;;6.00;58.30;;;;;;5047986;28;46378;-83
2022/01/18 13:39:58;;;;;;;8.27;4.80;;;6.00;58.30;;;;;;5049829;28;47034;-83
2022/01/18 13:42:36;;;;;;;8.63;4.63;;;6.10;58.10;;;;;;5046780;28;46328;-82
2022/01/18 13:45:34;;;;;;;8.03;4.70;;;6.10;57.70;;;;;;5045095;28;46387;-83
2022/01/18 13:48:02;;;;;;;10.43;5.43;;;6.10;57.60;;;;;;5031067;28;47120;-81
2022/01/18 13:50:37;;;;;;;16.17;5.20;;;5.90;57.90;;;;;;5048452;28;45820;-81
2022/01/18 13:53:08;;;;;;;12.37;5.57;;;5.70;57.90;;;;;;5048335;28;45745;-81
2022/01/18 13:55:36;;;;;;;10.10;5.17;;;5.90;58.00;;;;;;5049745;28;46487;-82
2022/01/18 13:58:05;;;;;;;13.30;4.60;;;5.90;57.70;;;;;;5051454;28;46301;-82
2022/01/18 14:00:31;;;;;;;10.57;4.90;;;5.90;57.70;;;;;;5037304;28;46003;-79
2022/01/18 14:02:57;;;;;;;10.10;4.53;;;5.80;57.70;;;;;;5043169;28;46385;-81
2022/01/18 14:05:24;;;;;;;10.37;4.00;;;5.70;57.70;;;;;;5050607;28;46420;-81
2022/01/18 14:08:09;;;;;;;10.63;4.57;;;5.70;57.60;;;;;;5049153;28;46630;-81
2022/01/18 14:10:34;;;;;;;14.17;4.60;;;5.70;57.50;;;;;;5053159;28;46359;-81
2022/01/18 14:13:00;;;;;;;7.10;4.50;;;5.60;57.70;;;;;;5053587;28;46375;-79